createdAt,value
2023-05-22T00:00:41.038Z,64.67
2023-05-22T00:01:40.849Z,65.58
2023-05-22T00:02:40.812Z,67.00
2023-05-22T00:03:40.775Z,66.49
2023-05-22T00:04:40.863Z,65.99
2023-05-22T00:05:40.775Z,67.20
2023-05-22T00:06:40.719Z,66.49
2023-05-22T00:07:40.752Z,66.19
2023-05-22T00:08:40.686Z,66.49
2023-05-22T00:09:40.689Z,66.80
2023-05-22T00:10:40.819Z,66.60
2023-05-22T00:11:40.645Z,67.03
2023-05-22T00:12:40.672Z,67.44
2023-05-22T00:13:40.676Z,67.44
2023-05-22T00:14:40.613Z,67.54
2023-05-22T00:15:41.190Z,68.05
2023-05-22T00:16:40.630Z,68.69
2023-05-22T00:17:40.587Z,68.69
2023-05-22T00:18:40.589Z,68.08
2023-05-22T00:19:40.593Z,67.77
2023-05-22T00:20:40.780Z,67.57
2023-05-22T00:21:40.519Z,67.47
2023-05-22T00:22:40.502Z,67.67
2023-05-22T00:23:40.492Z,68.18
2023-05-22T00:24:40.484Z,68.18
2023-05-22T00:25:40.484Z,67.36
2023-05-22T00:26:40.455Z,68.38
2023-05-22T00:27:40.445Z,67.77
2023-05-22T00:28:40.430Z,67.74
2023-05-22T00:29:40.414Z,68.08
2023-05-22T00:30:40.683Z,68.18
2023-05-22T00:31:40.421Z,68.28
2023-05-22T00:32:40.397Z,68.28
2023-05-22T00:33:40.361Z,68.38
2023-05-22T00:34:40.393Z,68.38
2023-05-22T00:35:40.340Z,68.49
2023-05-22T00:36:40.325Z,68.08
2023-05-22T00:37:40.362Z,68.59
2023-05-22T00:38:40.291Z,67.97
2023-05-22T00:39:40.311Z,67.97
2023-05-22T00:40:40.470Z,69.09
2023-05-22T00:41:40.245Z,68.59
2023-05-22T00:42:40.240Z,68.89
2023-05-22T00:43:40.256Z,68.89
2023-05-22T00:44:40.203Z,68.49
2023-05-22T00:45:40.185Z,68.38
2023-05-22T00:46:40.222Z,69.81
2023-05-22T00:47:40.199Z,70.11
2023-05-22T00:48:40.163Z,69.81
2023-05-22T00:49:40.150Z,69.13
2023-05-22T00:50:40.344Z,69.84
2023-05-22T00:51:40.118Z,70.04
2023-05-22T00:52:40.094Z,69.02
2023-05-22T00:53:40.088Z,69.13
2023-05-22T00:54:40.090Z,70.45
2023-05-22T00:55:40.094Z,70.35
2023-05-22T00:56:40.051Z,70.35
2023-05-22T00:57:40.035Z,69.84
2023-05-22T00:58:40.062Z,69.43
2023-05-22T00:59:40.005Z,70.25
2023-05-22T01:00:40.179Z,70.86
2023-05-22T01:01:40.091Z,70.65
2023-05-22T01:02:40.066Z,70.07
2023-05-22T01:03:40.005Z,69.77
2023-05-22T01:04:39.949Z,69.87
2023-05-22T01:07:07.772Z,70.48
2023-05-22T01:07:13.110Z,70.79
2023-05-22T01:08:13.126Z,70.79
2023-05-22T01:09:13.095Z,71.70
2023-05-22T01:10:13.064Z,72.01
2023-05-22T01:11:13.058Z,70.68
2023-05-22T01:12:13.077Z,70.38
2023-05-22T01:13:13.036Z,71.19
2023-05-22T01:14:13.036Z,70.99
2023-05-22T01:15:13.012Z,71.09
2023-05-22T01:16:13.047Z,70.28
2023-05-22T01:17:13.004Z,70.28
2023-05-22T01:18:13.046Z,70.38
2023-05-22T01:19:12.995Z,70.48
2023-05-22T01:20:12.942Z,70.01
2023-05-22T01:21:12.923Z,70.10
2023-05-22T01:22:12.927Z,70.28
2023-05-22T01:23:12.907Z,70.48
2023-05-22T01:24:12.921Z,70.28
2023-05-22T01:25:12.899Z,70.62
2023-05-22T01:26:12.882Z,71.84
2023-05-22T01:27:12.866Z,71.84
2023-05-22T01:28:12.846Z,71.64
2023-05-22T01:29:12.834Z,71.53
2023-05-22T01:30:12.840Z,72.14
2023-05-22T01:31:12.826Z,71.64
2023-05-22T01:32:12.774Z,70.92
2023-05-22T01:33:12.815Z,71.43
2023-05-22T01:34:12.781Z,71.64
2023-05-22T01:35:12.763Z,72.55
2023-05-22T01:36:12.745Z,72.04
2023-05-22T01:37:12.724Z,72.08
2023-05-22T01:38:12.709Z,72.28
2023-05-22T01:39:12.696Z,72.08
2023-05-22T01:40:12.688Z,72.48
2023-05-22T01:41:12.673Z,71.67
2023-05-22T01:42:12.701Z,70.86
2023-05-22T01:43:12.656Z,71.67
2023-05-22T01:44:12.621Z,72.58
2023-05-22T01:45:12.610Z,72.08
2023-05-22T01:46:12.649Z,72.58
2023-05-22T01:47:12.604Z,72.17
2023-05-22T01:48:12.619Z,72.78
2023-05-22T01:49:12.554Z,72.78
2023-05-22T01:50:12.553Z,71.87
2023-05-22T01:51:12.532Z,72.48
2023-05-22T01:52:12.524Z,72.17
2023-05-22T01:53:12.527Z,72.08
2023-05-22T01:54:12.587Z,73.10
2023-05-22T01:55:12.464Z,72.48
2023-05-22T01:56:12.452Z,72.62
2023-05-22T01:57:12.453Z,72.92
2023-05-22T01:58:12.448Z,72.92
2023-05-22T01:59:12.417Z,72.41
2023-05-22T02:00:12.483Z,71.91
2023-05-22T02:01:12.652Z,72.31
2023-05-22T02:02:12.466Z,71.91
2023-05-22T02:03:12.477Z,71.70
2023-05-22T02:04:12.352Z,72.21
2023-05-22T02:05:12.377Z,72.01
2023-05-22T02:06:12.420Z,72.82
2023-05-22T02:07:12.586Z,72.82
2023-05-22T02:08:12.308Z,73.13
2023-05-22T02:09:12.310Z,72.72
2023-05-22T02:10:12.278Z,72.62
2023-05-22T02:11:12.335Z,73.02
2023-05-22T02:12:12.306Z,73.74
2023-05-22T02:13:12.241Z,73.02
2023-05-22T02:14:12.378Z,73.64
2023-05-22T02:15:12.216Z,73.43
2023-05-22T02:16:12.425Z,74.04
2023-05-22T02:17:12.199Z,73.54
2023-05-22T02:18:12.298Z,72.92
2023-05-22T02:19:12.263Z,73.54
2023-05-22T02:20:12.135Z,73.33
2023-05-22T02:21:12.138Z,73.54
2023-05-22T02:22:12.121Z,73.47
2023-05-22T02:23:12.102Z,73.88
2023-05-22T02:24:12.125Z,73.26
2023-05-22T02:25:12.067Z,72.96
2023-05-22T02:26:12.054Z,72.96
2023-05-22T02:27:12.048Z,72.65
2023-05-22T02:28:12.139Z,71.73
2023-05-22T02:29:12.015Z,73.94
2023-05-22T02:30:12.041Z,72.62
2023-05-22T02:31:12.055Z,73.64
2023-05-22T02:32:12.006Z,72.82
2023-05-22T02:33:11.999Z,72.72
2023-05-22T02:34:11.954Z,73.64
2023-05-22T02:35:11.939Z,73.54
2023-05-22T02:36:11.979Z,72.82
2023-05-22T02:37:11.912Z,72.62
2023-05-22T02:38:11.908Z,72.04
2023-05-22T02:39:11.892Z,72.41
2023-05-22T02:40:11.884Z,73.54
2023-05-22T02:41:11.865Z,73.13
2023-05-22T02:42:11.881Z,72.96
2023-05-22T02:43:11.841Z,72.31
2023-05-22T02:44:11.831Z,72.14
2023-05-22T02:45:11.826Z,72.11
2023-05-22T02:46:11.833Z,71.91
2023-05-22T02:47:11.785Z,72.52
2023-05-22T02:48:11.824Z,73.13
2023-05-22T02:49:11.758Z,73.33
2023-05-22T02:50:11.738Z,73.57
2023-05-22T02:51:11.730Z,72.96
2023-05-22T02:52:11.710Z,73.47
2023-05-22T02:53:11.709Z,73.16
2023-05-22T02:54:11.734Z,73.57
2023-05-22T02:55:11.667Z,73.97
2023-05-22T02:56:11.658Z,73.57
2023-05-22T02:57:11.640Z,73.57
2023-05-22T02:58:11.669Z,72.75
2023-05-22T02:59:11.616Z,72.65
2023-05-22T03:00:11.790Z,72.96
2023-05-22T03:01:11.621Z,72.86
2023-05-22T03:02:11.648Z,72.55
2023-05-22T03:03:11.698Z,73.06
2023-05-22T03:04:11.653Z,73.06
2023-05-22T03:05:11.569Z,73.36
2023-05-22T03:06:11.560Z,72.65
2023-05-22T03:07:11.513Z,73.26
2023-05-22T03:08:11.498Z,72.96
2023-05-22T03:09:11.488Z,72.45
2023-05-22T03:10:11.456Z,72.04
2023-05-22T03:11:11.462Z,71.53
2023-05-22T03:12:11.539Z,71.73
2023-05-22T03:13:11.429Z,71.84
2023-05-22T03:14:11.408Z,71.53
2023-05-22T03:15:11.402Z,72.04
2023-05-22T03:16:11.410Z,72.55
2023-05-22T03:17:11.381Z,72.65
2023-05-22T03:18:11.666Z,72.75
2023-05-22T03:19:11.458Z,73.36
2023-05-22T03:20:11.329Z,73.57
2023-05-22T03:21:11.321Z,73.88
2023-05-22T03:22:11.311Z,74.49
2023-05-22T03:23:11.302Z,73.97
2023-05-22T03:24:11.691Z,74.79
2023-05-22T03:25:11.294Z,74.93
2023-05-22T03:26:11.274Z,74.93
2023-05-22T03:27:11.237Z,75.74
2023-05-22T03:28:11.229Z,75.95
2023-05-22T03:29:11.271Z,75.37
2023-05-22T03:30:11.241Z,74.96
2023-05-22T03:31:11.191Z,75.78
2023-05-22T03:32:11.169Z,76.80
2023-05-22T03:33:11.223Z,76.39
2023-05-22T03:34:11.203Z,76.70
2023-05-22T03:35:11.180Z,76.59
2023-05-22T03:36:11.175Z,76.73
2023-05-22T03:37:11.109Z,76.63
2023-05-22T03:38:11.101Z,77.65
2023-05-22T03:39:11.129Z,77.14
2023-05-22T03:40:11.092Z,77.04
2023-05-22T03:41:11.049Z,77.14
2023-05-22T03:42:11.067Z,77.59
2023-05-22T03:43:11.052Z,78.00
2023-05-22T03:44:11.028Z,77.69
2023-05-22T03:45:11.006Z,77.89
2023-05-22T03:46:11.077Z,77.59
2023-05-22T03:47:11.068Z,77.79
2023-05-22T03:48:11.121Z,77.48
2023-05-22T03:49:10.962Z,78.00
2023-05-22T03:50:10.942Z,78.41
2023-05-22T03:51:10.960Z,77.89
2023-05-22T03:52:10.921Z,78.71
2023-05-22T03:53:10.904Z,78.00
2023-05-22T03:54:10.918Z,78.81
2023-05-22T03:55:10.912Z,79.12
2023-05-22T03:56:10.865Z,78.91
2023-05-22T03:57:10.882Z,78.91
2023-05-22T03:58:10.844Z,78.71
2023-05-22T03:59:10.819Z,78.00
2023-05-22T04:00:10.848Z,78.09
2023-05-22T04:01:10.800Z,78.41
2023-05-22T04:02:10.798Z,78.61
2023-05-22T04:03:10.826Z,77.89
2023-05-22T04:04:10.756Z,77.38
2023-05-22T04:05:10.758Z,77.69
2023-05-22T04:06:10.769Z,78.41
2023-05-22T04:07:10.701Z,78.81
2023-05-22T04:08:10.696Z,78.50
2023-05-22T04:09:10.681Z,77.79
2023-05-22T04:10:10.678Z,77.89
2023-05-22T04:11:10.660Z,77.89
2023-05-22T04:12:10.798Z,78.00
2023-05-22T04:13:10.641Z,78.61
2023-05-22T04:14:10.633Z,78.20
2023-05-22T04:15:10.636Z,78.81
2023-05-22T04:16:10.743Z,79.43
2023-05-22T04:17:10.573Z,78.91
2023-05-22T04:18:10.689Z,78.91
2023-05-22T04:19:10.567Z,78.81
2023-05-22T04:20:10.546Z,79.12
2023-05-22T04:21:10.533Z,79.63
2023-05-22T04:22:10.506Z,79.32
2023-05-22T04:23:10.508Z,79.32
2023-05-22T04:24:10.507Z,79.43
2023-05-22T04:25:10.597Z,79.83
2023-05-22T04:26:10.531Z,78.71
2023-05-22T04:27:10.460Z,78.41
2023-05-22T04:28:10.438Z,79.12
2023-05-22T04:29:10.437Z,77.96
2023-05-22T04:30:10.456Z,78.27
2023-05-22T04:31:10.460Z,78.37
2023-05-22T04:32:10.367Z,78.77
2023-05-22T04:33:10.464Z,78.88
2023-05-22T04:34:10.369Z,78.88
2023-05-22T04:35:10.340Z,79.39
2023-05-22T04:36:12.388Z,79.59
2023-05-22T04:37:10.328Z,78.77
2023-05-22T04:38:10.290Z,78.88
2023-05-22T04:39:10.270Z,79.49
2023-05-22T04:40:10.301Z,79.18
2023-05-22T04:41:10.277Z,78.77
2023-05-22T04:42:10.270Z,79.18
2023-05-22T04:43:10.288Z,79.75
2023-05-22T04:44:10.230Z,79.96
2023-05-22T04:45:10.202Z,79.96
2023-05-22T04:46:10.256Z,80.27
2023-05-22T04:47:10.214Z,79.75
2023-05-22T04:48:10.205Z,80.47
2023-05-22T04:49:10.156Z,80.51
2023-05-22T04:50:10.150Z,80.41
2023-05-22T04:51:10.125Z,80.10
2023-05-22T04:52:10.108Z,80.30
2023-05-22T04:53:10.101Z,80.82
2023-05-22T04:54:10.122Z,80.61
2023-05-22T04:55:10.072Z,80.71
2023-05-22T04:56:10.072Z,80.91
2023-05-22T04:57:10.056Z,80.37
2023-05-22T04:58:10.056Z,80.78
2023-05-22T04:59:10.024Z,80.37
2023-05-22T05:00:10.039Z,80.27
2023-05-22T05:01:09.998Z,80.57
2023-05-22T05:02:09.969Z,80.78
2023-05-22T05:03:10.013Z,80.57
2023-05-22T05:04:09.997Z,80.47
2023-05-22T05:05:09.931Z,80.13
2023-05-22T05:06:09.960Z,79.93
2023-05-22T05:07:09.911Z,80.13
2023-05-22T05:08:09.881Z,79.82
2023-05-22T05:09:09.880Z,80.54
2023-05-22T05:10:10.369Z,79.89
2023-05-22T05:11:09.857Z,80.29
2023-05-22T05:12:09.874Z,79.99
2023-05-22T05:13:09.829Z,79.89
2023-05-22T05:14:09.825Z,79.79
2023-05-22T05:15:09.837Z,79.17
2023-05-22T05:16:09.793Z,79.24
2023-05-22T05:17:09.802Z,78.93
2023-05-22T05:18:09.879Z,79.03
2023-05-22T05:19:09.862Z,79.03
2023-05-22T05:20:09.737Z,78.73
2023-05-22T05:21:09.712Z,79.24
2023-05-22T05:22:09.712Z,79.61
2023-05-22T05:23:09.698Z,79.20
2023-05-22T05:24:09.785Z,79.10
2023-05-22T05:25:11.597Z,79.20
2023-05-22T05:26:09.702Z,79.20
2023-05-22T05:27:09.645Z,78.96
2023-05-22T05:28:09.637Z,79.06
2023-05-22T05:29:09.620Z,78.96
2023-05-22T05:30:09.619Z,78.76
2023-05-22T05:31:09.609Z,78.72
2023-05-22T05:32:09.634Z,78.41
2023-05-22T05:33:09.654Z,79.33
2023-05-22T05:34:09.550Z,78.92
2023-05-22T05:35:09.525Z,78.72
2023-05-22T05:36:09.544Z,78.62
2023-05-22T05:37:09.638Z,78.89
2023-05-22T05:38:09.508Z,78.28
2023-05-22T05:39:09.472Z,77.26
2023-05-22T05:40:09.517Z,77.36
2023-05-22T05:41:09.462Z,77.16
2023-05-22T05:42:09.510Z,77.53
2023-05-22T05:43:09.610Z,78.04
2023-05-22T05:44:09.509Z,77.43
2023-05-22T05:45:09.404Z,77.63
2023-05-22T05:46:09.481Z,77.09
2023-05-22T05:47:09.361Z,76.98
2023-05-22T05:48:09.443Z,76.78
2023-05-22T05:49:10.118Z,75.97
2023-05-22T05:50:09.358Z,75.36
2023-05-22T05:51:09.333Z,75.63
2023-05-22T05:52:09.300Z,76.24
2023-05-22T05:53:09.314Z,76.03
2023-05-22T05:54:09.317Z,76.54
2023-05-22T05:55:09.270Z,76.24
2023-05-22T05:56:09.252Z,76.03
2023-05-22T05:57:09.263Z,75.70
2023-05-22T05:58:09.232Z,75.29
2023-05-22T05:59:09.212Z,75.29
2023-05-22T06:00:09.228Z,74.88
2023-05-22T06:01:09.217Z,75.66
2023-05-22T06:02:09.246Z,75.35
2023-05-22T06:03:09.261Z,74.85
2023-05-22T06:04:09.188Z,74.44
2023-05-22T06:05:09.280Z,74.44
2023-05-22T06:06:09.151Z,74.71
2023-05-22T06:07:09.092Z,74.21
2023-05-22T06:08:09.110Z,73.19
2023-05-22T06:09:09.085Z,73.05
2023-05-22T06:10:09.076Z,74.17
2023-05-22T06:11:09.050Z,73.36
2023-05-22T06:12:09.063Z,73.56
2023-05-22T06:13:09.043Z,72.85
2023-05-22T06:14:09.007Z,72.92
2023-05-22T06:15:09.005Z,72.41
2023-05-22T06:16:09.029Z,72.41
2023-05-22T06:17:08.997Z,72.28
2023-05-22T06:18:09.077Z,72.08
2023-05-22T06:19:09.004Z,72.08
2023-05-22T06:20:08.955Z,71.77
2023-05-22T06:21:08.909Z,71.03
2023-05-22T06:22:08.959Z,70.73
2023-05-22T06:23:08.893Z,67.15
2023-05-22T06:24:08.897Z,66.95
2023-05-22T06:25:08.867Z,67.63
2023-05-22T06:26:08.850Z,67.52
2023-05-22T06:27:08.841Z,67.43
2023-05-22T06:28:08.825Z,68.54
2023-05-22T06:29:08.814Z,69.31
2023-05-22T06:30:08.852Z,68.20
2023-05-22T06:31:08.793Z,65.67
2023-05-22T06:32:08.835Z,66.45
2023-05-22T06:33:08.855Z,65.84
2023-05-22T06:34:08.866Z,63.93
2023-05-22T06:35:08.726Z,63.93
2023-05-22T06:36:08.877Z,64.33
2023-05-22T06:37:08.703Z,63.39
2023-05-22T06:38:08.688Z,64.10
2023-05-22T06:39:08.722Z,64.10
2023-05-22T06:40:08.664Z,62.05
2023-05-22T06:41:08.670Z,62.35
2023-05-22T06:42:08.675Z,62.76
2023-05-22T06:43:08.626Z,62.32
2023-05-22T06:44:08.619Z,63.53
2023-05-22T06:45:08.602Z,64.24
2023-05-22T06:46:08.605Z,63.64
2023-05-22T06:47:08.562Z,61.99
2023-05-22T06:48:08.682Z,62.19
2023-05-22T06:49:08.538Z,60.48
2023-05-22T06:50:08.534Z,60.38
2023-05-22T06:51:08.517Z,61.36
2023-05-22T06:52:08.556Z,61.56
2023-05-22T06:53:08.501Z,60.65
2023-05-22T06:54:08.499Z,60.25
2023-05-22T06:55:08.463Z,61.56
2023-05-22T06:56:08.450Z,61.33
2023-05-22T06:57:08.431Z,61.03
2023-05-22T06:58:08.426Z,60.72
2023-05-22T06:59:08.398Z,60.02
2023-05-22T07:00:08.425Z,59.89
2023-05-22T07:01:08.397Z,60.19
2023-05-22T07:02:08.379Z,60.89
2023-05-22T07:03:08.436Z,60.89
2023-05-22T07:04:08.341Z,61.30
2023-05-22T07:05:08.341Z,59.99
2023-05-22T07:06:08.352Z,59.69
2023-05-22T07:07:08.288Z,59.76
2023-05-22T07:08:08.288Z,59.06
2023-05-22T07:09:08.326Z,59.86
2023-05-22T07:10:08.263Z,58.65
2023-05-22T07:11:08.240Z,57.65
2023-05-22T07:12:08.303Z,57.02
2023-05-22T07:13:08.223Z,58.42
2023-05-22T07:14:08.202Z,58.02
2023-05-22T07:15:08.188Z,56.82
2023-05-22T07:16:08.253Z,58.09
2023-05-22T07:17:08.178Z,56.49
2023-05-22T07:18:08.236Z,56.38
2023-05-22T07:19:08.164Z,55.99
2023-05-22T07:20:08.132Z,56.59
2023-05-22T07:21:08.105Z,54.88
2023-05-22T07:22:08.105Z,55.68
2023-05-22T07:23:08.105Z,55.08
2023-05-22T07:24:08.110Z,54.05
2023-05-22T07:25:08.057Z,53.55
2023-05-22T07:26:08.046Z,54.55
2023-05-22T07:27:08.041Z,54.15
2023-05-22T07:28:08.013Z,55.35
2023-05-22T07:29:07.996Z,52.92
2023-05-22T07:30:08.019Z,51.42
2023-05-22T07:31:08.007Z,52.32
2023-05-22T07:32:07.976Z,54.83
2023-05-22T07:33:07.973Z,54.63
2023-05-22T07:34:07.945Z,55.63
2023-05-22T07:35:07.928Z,55.23
2023-05-22T07:36:07.978Z,54.40
2023-05-22T07:37:07.896Z,55.20
2023-05-22T07:38:07.883Z,55.60
2023-05-22T07:39:07.860Z,55.71
2023-05-22T07:40:07.865Z,54.70
2023-05-22T07:41:07.843Z,55.08
2023-05-22T07:42:07.876Z,55.28
2023-05-22T07:43:07.828Z,55.28
2023-05-22T07:44:07.798Z,55.15
2023-05-22T07:45:07.792Z,54.25
2023-05-22T07:46:07.819Z,54.95
2023-05-22T07:47:07.775Z,53.05
2023-05-22T07:48:07.853Z,50.24
2023-05-22T07:49:07.780Z,49.93
2023-05-22T07:50:07.766Z,50.81
2023-05-22T07:51:07.745Z,51.32
2023-05-22T07:52:07.740Z,51.51
2023-05-22T07:53:07.688Z,51.51
2023-05-22T07:54:07.760Z,52.92
2023-05-22T07:55:07.669Z,53.50
2023-05-22T07:56:07.653Z,53.59
2023-05-22T07:57:07.634Z,53.59
2023-05-22T07:58:07.602Z,53.69
2023-05-22T07:59:07.591Z,53.50
2023-05-22T08:00:07.651Z,52.39
2023-05-22T08:01:09.408Z,52.77
2023-05-22T08:03:35.630Z,53.77
2023-05-22T08:03:41.175Z,51.37
2023-05-22T08:04:41.143Z,49.87
2023-05-22T08:05:41.168Z,53.47
2023-05-22T08:06:41.100Z,50.57
2023-05-22T08:07:41.008Z,49.14
2023-05-22T08:08:41.011Z,50.84
2023-05-22T08:09:40.994Z,51.84
2023-05-22T08:11:01.770Z,49.64
2023-05-22T08:11:41.001Z,50.24
2023-05-22T08:12:40.938Z,52.22
2023-05-22T08:13:41.033Z,50.52
2023-05-22T08:14:40.918Z,51.42
2023-05-22T08:15:40.905Z,49.32
2023-05-22T08:16:40.926Z,51.72
2023-05-22T08:17:40.960Z,50.12
2023-05-22T08:18:40.894Z,50.59
2023-05-22T08:19:40.970Z,50.59
2023-05-22T08:20:41.105Z,48.90
2023-05-22T08:21:40.846Z,47.99
2023-05-22T08:22:40.806Z,50.20
2023-05-22T08:23:40.850Z,50.77
2023-05-22T08:24:40.786Z,52.17
2023-05-22T08:25:40.788Z,51.07
2023-05-22T08:26:40.781Z,50.54
2023-05-22T08:27:40.780Z,49.15
2023-05-22T08:28:40.721Z,47.45
2023-05-22T08:29:41.027Z,50.04
2023-05-22T08:30:41.042Z,49.62
2023-05-22T08:31:40.807Z,49.92
2023-05-22T08:32:40.771Z,46.73
2023-05-22T08:33:40.663Z,44.53
2023-05-22T08:34:40.660Z,44.83
2023-05-22T08:35:40.696Z,46.23
2023-05-22T08:36:40.642Z,46.03
2023-05-22T08:37:40.629Z,47.53
2023-05-22T08:38:40.639Z,44.23
2023-05-22T08:39:40.587Z,44.83
2023-05-22T08:40:42.580Z,48.22
2023-05-22T08:41:40.604Z,46.31
2023-05-22T08:42:40.556Z,44.51
2023-05-22T08:43:40.525Z,44.31
2023-05-22T08:44:40.522Z,45.51
2023-05-22T08:45:40.529Z,48.50
2023-05-22T08:46:40.532Z,47.60
2023-05-22T08:47:40.607Z,48.48
2023-05-22T08:48:40.486Z,46.19
2023-05-22T08:49:40.451Z,45.39
2023-05-22T08:50:40.617Z,42.19
2023-05-22T08:51:40.423Z,42.97
2023-05-22T08:52:40.403Z,43.17
2023-05-22T08:53:40.427Z,44.37
2023-05-22T08:54:40.395Z,45.26
2023-05-22T08:55:40.374Z,42.47
2023-05-22T08:56:49.397Z,42.97
2023-05-22T08:57:40.346Z,45.66
2023-05-22T08:58:40.357Z,46.84
2023-05-22T08:59:40.353Z,46.24
2023-05-22T09:00:40.539Z,44.54
2023-05-22T09:01:40.558Z,45.24
2023-05-22T09:02:40.335Z,46.14
2023-05-22T09:03:40.347Z,43.43
2023-05-22T09:04:40.262Z,43.73
2023-05-22T09:05:40.307Z,45.12
2023-05-22T09:06:40.230Z,43.33
2023-05-22T09:07:40.215Z,42.33
2023-05-22T09:08:40.212Z,43.63
2023-05-22T09:09:40.212Z,44.70
2023-05-22T09:10:40.350Z,43.51
2023-05-22T09:11:40.206Z,43.90
2023-05-22T09:12:40.150Z,43.11
2023-05-22T09:13:40.131Z,40.52
2023-05-22T09:14:40.125Z,39.92
2023-05-22T09:15:40.123Z,39.23
2023-05-22T09:16:40.214Z,40.12
2023-05-22T09:17:40.154Z,39.92
2023-05-22T09:18:40.123Z,40.22
2023-05-22T09:19:40.168Z,41.02
2023-05-22T09:20:40.256Z,43.79
2023-05-22T09:21:40.056Z,42.79
2023-05-22T09:22:40.023Z,44.38
2023-05-22T09:23:40.059Z,42.19
2023-05-22T09:24:40.037Z,42.57
2023-05-22T09:25:39.973Z,42.97
2023-05-22T09:26:39.991Z,41.87
2023-05-22T09:27:39.956Z,42.65
2023-05-22T09:28:39.938Z,41.16
2023-05-22T09:29:40.229Z,42.05
2023-05-22T09:30:40.377Z,43.54
2023-05-22T09:31:39.956Z,43.62
2023-05-22T09:32:39.934Z,40.05
2023-05-22T09:33:39.891Z,40.84
2023-05-22T09:34:39.881Z,42.31
2023-05-22T09:35:40.166Z,39.73
2023-05-22T09:36:39.852Z,41.61
2023-05-22T09:37:39.844Z,42.99
2023-05-22T09:38:39.833Z,40.70
2023-05-22T09:39:39.814Z,40.80
2023-05-22T09:40:39.936Z,39.21
2023-05-22T09:41:39.915Z,37.82
2023-05-22T09:42:39.773Z,37.72
2023-05-22T09:43:39.757Z,36.63
2023-05-22T09:44:39.745Z,37.92
2023-05-22T09:45:39.755Z,37.52
2023-05-22T09:46:39.825Z,38.42
2023-05-22T09:47:39.748Z,38.52
2023-05-22T09:48:39.687Z,36.63
2023-05-22T09:49:39.674Z,38.52
2023-05-22T09:50:39.830Z,39.41
2023-05-22T09:51:39.658Z,40.90
2023-05-22T09:52:39.636Z,41.50
2023-05-22T09:53:39.656Z,40.09
2023-05-22T09:54:39.598Z,40.48
2023-05-22T09:55:39.591Z,41.36
2023-05-22T09:56:40.375Z,40.26
2023-05-22T09:57:39.557Z,39.77
2023-05-22T09:58:39.575Z,40.05
2023-05-22T09:59:39.559Z,39.06
2023-05-22T10:00:39.742Z,39.45
2023-05-22T10:01:39.587Z,39.83
2023-05-22T10:02:39.519Z,37.75
2023-05-22T10:03:39.492Z,37.75
2023-05-22T10:04:39.530Z,39.34
2023-05-22T10:05:39.483Z,42.01
2023-05-22T10:06:39.431Z,43.28
2023-05-22T10:07:39.475Z,42.29
2023-05-22T10:08:39.420Z,42.49
2023-05-22T10:09:39.545Z,42.38
2023-05-22T10:10:39.696Z,40.98
2023-05-22T10:11:39.405Z,40.39
2023-05-22T10:12:39.363Z,42.07
2023-05-22T10:13:39.350Z,41.97
2023-05-22T10:14:39.334Z,41.55
2023-05-22T10:15:39.327Z,42.25
2023-05-22T10:16:39.419Z,40.76
2023-05-22T10:17:39.374Z,42.44
2023-05-22T10:18:39.293Z,43.33
2023-05-22T10:19:42.238Z,41.44
2023-05-22T10:20:39.453Z,43.21
2023-05-22T10:21:39.248Z,41.53
2023-05-22T10:22:39.309Z,42.13
2023-05-22T10:23:39.254Z,41.73
2023-05-22T10:24:39.200Z,41.93
2023-05-22T10:25:39.233Z,42.11
2023-05-22T10:26:39.176Z,41.31
2023-05-22T10:27:39.160Z,40.82
2023-05-22T10:28:39.173Z,40.42
2023-05-22T10:29:39.153Z,41.41
2023-05-22T10:30:39.297Z,41.41
2023-05-22T10:31:40.622Z,42.21
2023-05-22T10:32:39.119Z,43.19
2023-05-22T10:33:39.143Z,42.58
2023-05-22T10:34:39.072Z,41.20
2023-05-22T10:35:39.128Z,39.62
2023-05-22T10:36:39.078Z,40.90
2023-05-22T10:37:39.051Z,40.70
2023-05-22T10:38:39.036Z,39.70
2023-05-22T10:39:39.032Z,39.70
2023-05-22T10:40:39.008Z,40.09
2023-05-22T10:41:39.302Z,40.48
2023-05-22T10:42:38.978Z,41.08
2023-05-22T10:43:39.070Z,40.88
2023-05-22T10:44:38.945Z,40.86
2023-05-22T10:45:38.966Z,41.46
2023-05-22T10:46:38.918Z,40.96
2023-05-22T10:47:39.019Z,40.96
2023-05-22T10:48:38.898Z,41.43
2023-05-22T10:49:38.884Z,42.82
2023-05-22T10:50:38.995Z,41.41
2023-05-22T10:51:38.853Z,41.61
2023-05-22T10:52:38.867Z,39.94
2023-05-22T10:53:38.981Z,40.70
2023-05-22T10:54:38.836Z,41.59
2023-05-22T10:55:38.808Z,40.01
2023-05-22T10:56:38.808Z,39.03
2023-05-22T10:57:38.790Z,37.85
2023-05-22T10:58:38.833Z,38.43
2023-05-22T10:59:38.815Z,38.83
2023-05-22T11:00:38.992Z,39.12
2023-05-22T11:01:38.944Z,38.64
2023-05-22T11:02:38.773Z,39.81
2023-05-22T11:03:38.798Z,38.93
2023-05-22T11:04:38.772Z,39.23
2023-05-22T11:05:38.707Z,39.12
2023-05-22T11:06:38.665Z,39.89
2023-05-22T11:07:38.670Z,41.17
2023-05-22T11:08:38.636Z,40.09
2023-05-22T11:09:38.656Z,38.20
2023-05-22T11:10:38.739Z,38.40
2023-05-22T11:11:38.627Z,38.01
2023-05-22T11:12:38.605Z,39.78
2023-05-22T11:13:38.579Z,38.20
2023-05-22T11:14:38.559Z,38.79
2023-05-22T11:15:38.553Z,38.99
2023-05-22T11:16:38.589Z,38.79
2023-05-22T11:17:38.570Z,39.18
2023-05-22T11:18:38.506Z,37.59
2023-05-22T11:19:38.524Z,37.49
2023-05-22T11:20:38.675Z,38.68
2023-05-22T11:21:38.501Z,37.69
2023-05-22T11:22:38.551Z,38.01
2023-05-22T11:23:38.493Z,38.58
2023-05-22T11:24:38.473Z,37.30
2023-05-22T11:25:38.425Z,38.28
2023-05-22T11:26:38.411Z,37.79
2023-05-22T11:27:38.449Z,38.68
2023-05-22T11:28:38.376Z,37.79
2023-05-22T11:29:38.434Z,37.20
2023-05-22T11:30:38.946Z,38.78
2023-05-22T11:31:38.464Z,38.68
2023-05-22T11:32:38.365Z,37.87
2023-05-22T11:33:38.324Z,37.87
2023-05-22T11:34:38.312Z,37.28
2023-05-22T11:35:38.313Z,36.79
2023-05-22T11:36:38.354Z,37.18
2023-05-22T11:37:38.278Z,37.08
2023-05-22T11:38:38.255Z,37.77
2023-05-22T11:39:38.243Z,38.26
2023-05-22T11:40:38.454Z,37.57
2023-05-22T11:41:38.515Z,38.26
2023-05-22T11:42:38.206Z,38.56
2023-05-22T11:43:38.194Z,36.79
2023-05-22T11:44:38.180Z,38.17
2023-05-22T11:45:38.158Z,37.57
2023-05-22T11:46:38.222Z,36.59
2023-05-22T11:47:38.271Z,37.08
2023-05-22T11:48:38.126Z,36.88
2023-05-22T11:49:38.106Z,36.97
2023-05-22T11:50:42.431Z,37.07
2023-05-22T11:51:38.165Z,36.18
2023-05-22T11:52:38.077Z,36.49
2023-05-22T11:53:38.105Z,36.97
2023-05-22T11:54:38.916Z,36.47
2023-05-22T11:55:38.187Z,35.39
2023-05-22T11:56:38.060Z,36.18
2023-05-22T11:57:38.067Z,36.28
2023-05-22T11:58:38.051Z,37.36
2023-05-22T11:59:38.036Z,37.36
2023-05-22T12:00:38.233Z,36.55
2023-05-22T12:01:37.952Z,37.93
2023-05-22T12:02:38.032Z,36.36
2023-05-22T12:03:38.049Z,36.36
2023-05-22T12:04:37.940Z,35.18
2023-05-22T12:05:37.933Z,36.16
2023-05-22T12:06:37.910Z,35.97
2023-05-22T12:07:37.897Z,38.32
2023-05-22T12:08:37.879Z,35.67
2023-05-22T12:09:37.895Z,35.97
2023-05-22T12:10:38.124Z,35.85
2023-05-22T12:11:37.864Z,37.13
2023-05-22T12:12:37.807Z,35.75
2023-05-22T12:13:37.807Z,34.97
2023-05-22T12:14:37.788Z,37.13
2023-05-22T12:15:37.764Z,37.50
2023-05-22T12:16:37.872Z,35.64
2023-05-22T12:17:37.880Z,36.62
2023-05-22T12:18:37.761Z,37.40
2023-05-22T12:19:37.768Z,37.30
2023-05-22T12:20:37.906Z,36.40
2023-05-22T12:21:37.694Z,36.01
2023-05-22T12:22:37.671Z,35.83
2023-05-22T12:23:37.799Z,36.21
2023-05-22T12:24:37.665Z,35.52
2023-05-22T12:25:37.636Z,37.09
2023-05-22T12:26:37.642Z,35.42
2023-05-22T12:27:38.615Z,35.13
2023-05-22T12:28:37.597Z,34.25
2023-05-22T12:29:37.629Z,34.26
2023-05-22T12:30:37.812Z,35.91
2023-05-22T12:31:37.601Z,35.91
2023-05-22T12:32:37.751Z,37.48
2023-05-22T12:33:37.537Z,35.89
2023-05-22T12:34:37.515Z,35.70
2023-05-22T12:35:37.550Z,34.42
2023-05-22T12:36:37.534Z,33.54
2023-05-22T12:37:37.482Z,34.42
2023-05-22T12:38:37.502Z,35.99
2023-05-22T12:39:37.490Z,36.19
2023-05-22T12:40:37.645Z,34.72
2023-05-22T12:41:37.511Z,35.60
2023-05-22T12:42:37.420Z,34.52
2023-05-22T12:43:37.432Z,33.72
2023-05-22T12:44:37.400Z,34.33
2023-05-22T12:45:37.392Z,33.54
2023-05-22T12:46:37.386Z,34.70
2023-05-22T12:47:37.462Z,35.00
2023-05-22T12:48:37.356Z,33.61
2023-05-22T12:49:37.336Z,32.23
2023-05-22T12:50:37.631Z,34.10
2023-05-22T12:51:37.443Z,34.20
2023-05-22T12:52:37.321Z,33.12
2023-05-22T12:53:37.640Z,32.43